Time;durP1;ratioP1;P1;durP2;ratioP2;P2;SDS_P1;SDS_P2;PMS_P1;PMS_P2;Temp;Humidity;BMP_temperature;BMP_pressure;BME280_temperature;BME280_humidity;BME280_pressure;Samples;Min_cycle;Max_cycle;Signal;HPM_P1;HPM_P2
2023/06/11 00:00:58;;;;;;;9.60;8.80;;;;;;;18.30;72.44;101069.06;5029310;28;20212;-81
2023/06/11 00:03:27;;;;;;;11.40;10.30;;;;;;;18.29;73.42;101066.47;5024238;28;20213;-80
2023/06/11 00:05:54;;;;;;;11.77;10.57;;;;;;;18.27;73.97;101072.00;5025690;28;20227;-81
2023/06/11 00:08:20;;;;;;;12.17;10.97;;;;;;;18.29;74.57;101077.28;5028801;28;20238;-80
2023/06/11 00:10:47;;;;;;;11.17;10.17;;;;;;;18.29;74.93;101070.03;5027431;28;20296;-80
2023/06/11 00:13:13;;;;;;;12.67;11.57;;;;;;;18.31;75.18;101073.44;5033221;28;20691;-80
2023/06/11 00:15:40;;;;;;;12.70;11.47;;;;;;;18.31;75.18;101075.28;5025324;28;20753;-81
2023/06/11 00:18:06;;;;;;;12.60;11.50;;;;;;;18.31;75.39;101076.16;5029247;28;20204;-80
2023/06/11 00:20:42;;;;;;;14.07;10.57;;;;;;;18.30;75.50;101079.84;5030863;28;20208;-80
2023/06/11 00:23:08;;;;;;;11.57;10.57;;;;;;;18.29;75.46;101079.97;5021707;28;20207;-80
2023/06/11 00:25:35;;;;;;;12.30;11.10;;;;;;;18.28;75.63;101075.56;5033450;28;20231;-79
2023/06/11 00:28:01;;;;;;;12.17;11.07;;;;;;;18.27;75.72;101079.28;5028854;28;20209;-82
2023/06/11 00:30:30;;;;;;;12.93;11.83;;;;;;;18.24;75.33;101087.63;5035562;28;20633;-81
2023/06/11 00:32:56;;;;;;;12.07;10.97;;;;;;;18.16;75.00;101080.22;5031950;28;20202;-80
2023/06/11 00:35:23;;;;;;;12.73;11.53;;;;;;;18.06;74.22;101079.34;5025315;28;20727;-80
2023/06/11 00:37:51;;;;;;;12.43;11.13;;;;;;;17.97;74.85;101080.13;5033069;28;21131;-79
2023/06/11 00:40:17;;;;;;;12.27;11.23;;;;;;;17.93;75.88;101081.38;5026952;28;20230;-82
2023/06/11 00:42:45;;;;;;;12.07;11.00;;;;;;;17.93;76.48;101075.97;5029653;28;20201;-82
2023/06/11 00:45:12;;;;;;;12.60;11.50;;;;;;;17.93;76.74;101073.28;5025161;28;20223;-83
2023/06/11 00:47:39;;;;;;;11.70;10.70;;;;;;;17.92;76.85;101077.81;5025643;28;20216;-80
2023/06/11 00:50:08;;;;;;;11.90;10.80;;;;;;;17.93;76.94;101081.38;5028040;28;20224;-80
2023/06/11 00:52:35;;;;;;;12.23;11.10;;;;;;;17.88;76.02;101075.53;5031166;28;20215;-80
2023/06/11 00:55:04;;;;;;;12.40;11.40;;;;;;;17.79;75.22;101079.88;5026510;28;20235;-80
2023/06/11 00:57:31;;;;;;;12.70;11.40;;;;;;;17.68;74.52;101082.66;5027259;28;20204;-80
2023/06/11 00:59:58;;;;;;;11.33;10.23;;;;;;;17.55;74.31;101080.16;5031582;28;20697;-80
2023/06/11 01:02:29;;;;;;;12.73;11.53;;;;;;;17.44;74.78;101082.88;5023445;28;20213;-82
2023/06/11 01:05:00;;;;;;;12.33;11.03;;;;;;;17.34;74.74;101081.97;5021226;28;20228;-79
2023/06/11 01:07:31;;;;;;;12.73;11.50;;;;;;;17.28;75.75;101085.16;5031233;28;20540;-80
2023/06/11 01:09:57;;;;;;;13.43;12.23;;;;;;;17.24;76.92;101081.03;5028557;28;20223;-79
2023/06/11 01:12:25;;;;;;;13.53;12.37;;;;;;;17.22;77.61;101078.47;5026244;28;20209;-81
2023/06/11 01:14:52;;;;;;;13.37;12.27;;;;;;;17.22;78.70;101080.28;5030174;28;20264;-81
2023/06/11 01:17:25;;;;;;;14.40;12.77;;;;;;;17.22;78.72;101081.16;5023871;28;20234;-79
2023/06/11 01:20:03;;;;;;;14.10;12.63;;;;;;;17.19;78.80;101089.50;5020055;28;20210;-80
2023/06/11 01:22:34;;;;;;;13.97;12.33;;;;;;;17.14;78.98;101083.66;5024181;28;20200;-79
2023/06/11 01:25:17;;;;;;;13.80;12.50;;;;;;;17.09;79.50;101080.47;5036142;28;20282;-80
2023/06/11 01:28:00;;;;;;;13.30;11.43;;;;;;;17.05;79.75;101073.63;5028981;28;20248;-82
2023/06/11 01:30:30;;;;;;;12.50;11.33;;;;;;;16.96;78.40;101088.72;5032387;28;20229;-79
2023/06/11 01:32:57;;;;;;;13.57;12.17;;;;;;;16.85;77.86;101085.19;5026882;28;21078;-80
2023/06/11 01:35:24;;;;;;;12.27;11.17;;;;;;;16.76;78.10;101086.81;5037776;28;20222;-80
2023/06/11 01:37:55;;;;;;;12.53;11.27;;;;;;;16.71;78.53;101094.41;5029245;28;20208;-80
2023/06/11 01:40:21;;;;;;;14.73;12.83;;;;;;;16.71;79.21;101093.56;5025715;28;20204;-83
2023/06/11 01:42:48;;;;;;;14.63;13.17;;;;;;;16.70;80.25;101091.84;5033305;28;20663;-80
2023/06/11 01:45:18;;;;;;;15.30;13.70;;;;;;;16.72;80.95;101095.25;5027353;28;20230;-83
2023/06/11 01:47:45;;;;;;;17.00;13.67;;;;;;;16.72;81.43;101098.81;5031859;28;20236;-80
2023/06/11 01:50:12;;;;;;;14.87;13.50;;;;;;;16.73;82.07;101096.97;5028608;28;20226;-81
2023/06/11 01:52:39;;;;;;;14.03;12.70;;;;;;;16.73;82.11;101092.47;5031264;28;20215;-81
2023/06/11 01:55:06;;;;;;;13.87;12.57;;;;;;;16.71;81.64;101094.41;5026887;28;20224;-81
2023/06/11 01:57:33;;;;;;;13.73;12.23;;;;;;;16.66;81.76;101092.09;5035961;28;20198;-82
2023/06/11 02:00:00;;;;;;;15.00;13.50;;;;;;;16.62;81.90;101090.63;5024547;28;20204;-81
2023/06/11 02:02:28;;;;;;;14.80;13.40;;;;;;;16.59;82.41;101090.00;5029544;28;20286;-81
2023/06/11 02:04:55;;;;;;;14.00;12.00;;;;;;;16.57;82.82;101092.81;5031286;28;20224;-81
2023/06/11 02:07:22;;;;;;;18.83;13.37;;;;;;;16.57;83.10;101091.97;5027658;28;20655;-80
2023/06/11 02:09:49;;;;;;;13.40;12.20;;;;;;;16.56;83.37;101093.81;5033431;28;20724;-81
2023/06/11 02:12:15;;;;;;;15.40;13.57;;;;;;;16.57;83.69;101092.81;5038737;28;20207;-81
2023/06/11 02:14:42;;;;;;;13.07;11.97;;;;;;;16.55;83.84;101094.78;5031652;28;20239;-82
2023/06/11 02:17:09;;;;;;;17.20;13.27;;;;;;;16.55;83.11;101093.94;5023704;28;20210;-82
2023/06/11 02:19:37;;;;;;;12.93;11.60;;;;;;;16.48;82.35;101093.56;5027748;28;20234;-80
2023/06/11 02:22:04;;;;;;;16.13;12.17;;;;;;;16.38;81.47;101089.91;5029822;28;20208;-80
2023/06/11 02:24:31;;;;;;;14.70;12.17;;;;;;;16.26;81.46;101085.53;5028188;28;20224;-80
2023/06/11 02:26:57;;;;;;;14.23;12.37;;;;;;;16.21;82.03;101090.41;5032520;28;20222;-80
2023/06/11 02:29:24;;;;;;;12.40;11.23;;;;;;;16.19;82.43;101087.00;5029451;28;20231;-80
2023/06/11 02:31:50;;;;;;;13.37;12.27;;;;;;;16.17;82.89;101084.41;5027182;28;20210;-81
2023/06/11 02:34:17;;;;;;;12.73;11.30;;;;;;;16.16;83.22;101082.72;5025930;28;20229;-81
2023/06/11 02:36:44;;;;;;;12.30;11.10;;;;;;;16.18;83.51;101082.59;5027795;28;20216;-81
2023/06/11 02:39:11;;;;;;;12.50;11.30;;;;;;;16.17;83.67;101087.09;5021780;28;20651;-80
2023/06/11 02:41:37;;;;;;;16.33;12.13;;;;;;;16.19;84.16;101084.31;5026646;28;20662;-81
2023/06/11 02:44:04;;;;;;;12.43;11.03;;;;;;;16.18;84.41;101080.75;5033422;28;20222;-81
2023/06/11 02:46:31;;;;;;;12.90;11.70;;;;;;;16.20;84.41;101086.00;5027595;28;20212;-80
2023/06/11 02:48:57;;;;;;;12.73;11.47;;;;;;;16.21;84.80;101095.78;5019870;28;20581;-80
2023/06/11 02:51:24;;;;;;;12.00;10.90;;;;;;;16.20;84.76;101091.38;5022204;28;20209;-82
2023/06/11 02:53:51;;;;;;;12.70;11.40;;;;;;;16.18;84.67;101094.19;5028292;28;20198;-81
2023/06/11 02:56:18;;;;;;;14.37;11.53;;;;;;;16.19;85.40;101092.38;5031048;28;20208;-80
2023/06/11 02:58:47;;;;;;;12.27;10.97;;;;;;;16.18;85.17;101094.19;5026509;28;20675;-81
2023/06/11 03:01:13;;;;;;;13.63;11.93;;;;;;;16.19;85.16;101092.38;5028354;28;20209;-79
2023/06/11 03:03:40;;;;;;;13.40;10.93;;;;;;;16.17;85.28;101102.38;5032323;28;20208;-80
2023/06/11 03:06:06;;;;;;;13.93;11.17;;;;;;;16.14;84.79;101098.09;5021432;28;20204;-81
2023/06/11 03:08:33;;;;;;;11.63;10.37;;;;;;;16.09;84.42;101097.63;5028867;28;20205;-80
2023/06/11 03:11:00;;;;;;;15.77;12.50;;;;;;;16.01;83.32;101099.19;5035447;28;20231;-80
2023/06/11 03:13:27;;;;;;;12.87;11.57;;;;;;;15.89;83.34;101095.66;5029378;28;20241;-82
2023/06/11 03:15:55;;;;;;;16.43;11.63;;;;;;;15.81;83.46;101096.25;5027258;28;20246;-82
2023/06/11 03:18:21;;;;;;;12.90;11.57;;;;;;;15.77;83.82;101101.97;5027982;28;20287;-81
2023/06/11 03:20:48;;;;;;;12.77;10.63;;;;;;;15.74;84.10;101103.09;5023850;28;20206;-81
2023/06/11 03:23:15;;;;;;;14.53;11.70;;;;;;;15.75;84.34;101109.31;5029921;28;20210;-80
2023/06/11 03:25:43;;;;;;;12.47;11.13;;;;;;;15.75;84.52;101103.94;5024769;28;20228;-80
2023/06/11 03:28:10;;;;;;;13.00;10.53;;;;;;;15.75;84.94;101103.94;5025778;28;20603;-79
2023/06/11 03:30:37;;;;;;;12.97;11.13;;;;;;;15.75;85.12;101099.44;5021778;28;20222;-79
2023/06/11 03:33:03;;;;;;;12.23;10.53;;;;;;;15.77;85.34;101107.34;5030014;28;20199;-79
2023/06/11 03:35:30;;;;;;;12.13;10.83;;;;;;;15.78;84.97;101109.06;5029550;28;20235;-79
2023/06/11 03:37:56;;;;;;;12.97;11.10;;;;;;;15.79;85.40;101110.75;5030716;28;20215;-80
2023/06/11 03:40:23;;;;;;;13.10;11.50;;;;;;;15.80;85.31;101109.78;5031154;28;20205;-80
2023/06/11 03:42:50;;;;;;;11.50;10.50;;;;;;;15.81;85.33;101111.50;5029668;28;20209;-79
2023/06/11 03:45:18;;;;;;;12.23;10.67;;;;;;;15.81;85.11;101115.03;5023129;28;20227;-79
2023/06/11 03:47:51;;;;;;;11.83;10.63;;;;;;;15.81;84.91;101104.31;5016826;28;20216;-79
2023/06/11 03:50:18;;;;;;;14.60;11.60;;;;;;;15.81;84.66;101115.03;5025005;28;20246;-79
2023/06/11 03:52:44;;;;;;;12.70;11.50;;;;;;;15.81;84.66;101109.66;5022441;28;20578;-81
2023/06/11 03:55:11;;;;;;;11.50;10.30;;;;;;;15.79;84.44;101118.81;5021025;28;20223;-81
2023/06/11 03:57:38;;;;;;;15.33;11.63;;;;;;;15.75;84.28;101112.00;5019975;28;20216;-81
2023/06/11 04:00:06;;;;;;;13.97;11.70;;;;;;;15.67;83.77;101114.41;5023499;28;20195;-80
2023/06/11 04:02:33;;;;;;;12.30;11.10;;;;;;;15.59;84.17;101110.47;5022431;28;20650;-80
2023/06/11 04:05:00;;;;;;;13.43;11.93;;;;;;;15.54;84.74;101109.97;5022573;28;20599;-79
2023/06/11 04:07:27;;;;;;;12.53;11.30;;;;;;;15.51;85.57;101115.56;5029385;28;20592;-80
2023/06/11 04:09:54;;;;;;;12.93;11.50;;;;;;;15.51;86.43;101120.06;5033225;28;20238;-79
2023/06/11 04:12:20;;;;;;;13.23;11.23;;;;;;;15.53;86.69;101120.81;5027739;28;20206;-81
2023/06/11 04:14:47;;;;;;;14.30;10.40;;;;;;;15.54;87.54;101117.16;5030042;28;20227;-80
2023/06/11 04:17:13;;;;;;;14.90;11.27;;;;;;;15.56;88.25;101120.63;5027006;28;20234;-80
2023/06/11 04:19:41;;;;;;;13.50;10.43;;;;;;;15.60;88.48;101119.38;5030766;28;20211;-82
2023/06/11 04:22:07;;;;;;;11.03;9.93;;;;;;;15.64;88.58;101118.19;5024578;28;20206;-80
2023/06/11 04:24:34;;;;;;;11.63;10.43;;;;;;;15.68;88.52;101118.81;5027231;28;20764;-80
2023/06/11 04:27:00;;;;;;;16.63;11.03;;;;;;;15.72;88.90;101120.28;5021802;28;20269;-80
2023/06/11 04:29:29;;;;;;;11.40;10.33;;;;;;;15.74;88.86;101123.72;5020864;28;20592;-81
2023/06/11 04:31:56;;;;;;;11.87;9.60;;;;;;;15.77;88.87;101124.31;5030274;28;20626;-81
2023/06/11 04:34:28;;;;;;;12.27;9.70;;;;;;;15.79;88.31;101130.41;5024776;28;20255;-81
2023/06/11 04:36:56;;;;;;;13.77;10.63;;;;;;;15.79;88.12;101132.25;5029011;28;20214;-81
2023/06/11 04:39:23;;;;;;;10.40;9.50;;;;;;;15.81;88.36;101125.78;5026147;28;20575;-82
2023/06/11 04:41:51;;;;;;;11.10;10.00;;;;;;;15.82;88.20;101123.97;5031992;28;20212;-81
2023/06/11 04:44:20;;;;;;;10.27;9.37;;;;;;;15.82;88.45;101116.75;5031020;28;20259;-80
2023/06/11 04:46:47;;;;;;;14.67;10.60;;;;;;;15.85;88.86;101115.66;5030338;28;20213;-80
2023/06/11 04:49:14;;;;;;;11.47;10.27;;;;;;;15.88;88.77;101116.28;5033096;28;20221;-80
2023/06/11 04:51:42;;;;;;;11.33;10.03;;;;;;;15.90;88.94;101125.09;5024344;28;20318;-81
2023/06/11 04:54:10;;;;;;;10.90;9.90;;;;;;;15.92;89.37;101119.59;5030092;28;20276;-81
2023/06/11 04:56:36;;;;;;;10.97;9.37;;;;;;;15.94;89.03;101115.78;5026559;28;20206;-80
2023/06/11 04:59:05;;;;;;;12.33;9.90;;;;;;;15.98;89.51;101122.63;5027067;28;20217;-81
2023/06/11 05:01:32;;;;;;;13.37;9.20;;;;;;;16.02;89.61;101117.03;5027472;28;20808;-80
2023/06/11 05:03:59;;;;;;;9.30;8.47;;;;;;;16.07;90.09;101117.53;5027222;28;20227;-80
2023/06/11 05:06:25;;;;;;;12.03;9.13;;;;;;;16.09;89.96;101112.91;5027533;28;20213;-80
2023/06/11 05:08:53;;;;;;;11.87;10.47;;;;;;;16.14;90.16;101113.38;5022305;28;20204;-80
2023/06/11 05:11:20;;;;;;;11.07;9.93;;;;;;;16.18;90.04;101121.06;5021941;28;20282;-81
2023/06/11 05:13:47;;;;;;;13.13;10.10;;;;;;;16.22;89.98;101110.94;5028711;28;20208;-80
2023/06/11 05:16:14;;;;;;;10.87;9.10;;;;;;;16.26;90.02;101117.78;5027649;28;20218;-82
2023/06/11 05:18:40;;;;;;;13.17;9.73;;;;;;;16.32;90.05;101110.06;5026327;28;20210;-82
2023/06/11 05:21:07;;;;;;;11.23;9.33;;;;;;;16.40;89.79;101124.75;5022724;28;20197;-80
2023/06/11 05:23:33;;;;;;;13.83;9.83;;;;;;;16.47;89.70;101117.91;5024402;28;20216;-80
2023/06/11 05:26:01;;;;;;;12.07;9.80;;;;;;;16.52;89.11;101121.91;5031244;28;20223;-80
2023/06/11 05:28:29;;;;;;;11.57;9.83;;;;;;;16.60;88.92;101118.63;5021571;28;20272;-81
2023/06/11 05:30:56;;;;;;;10.87;9.70;;;;;;;16.69;88.49;101125.09;5027519;28;20291;-81
2023/06/11 05:33:22;;;;;;;13.97;9.30;;;;;;;16.77;88.22;101119.97;5026752;28;20242;-81
2023/06/11 05:35:51;;;;;;;13.90;9.63;;;;;;;16.85;88.18;101121.03;5026793;28;20649;-81
2023/06/11 05:38:18;;;;;;;12.40;9.57;;;;;;;16.96;87.57;101120.16;5026863;28;20209;-80
2023/06/11 05:40:44;;;;;;;11.27;9.47;;;;;;;17.08;87.29;101119.13;5029369;28;20203;-80
2023/06/11 05:43:13;;;;;;;12.73;9.33;;;;;;;17.22;87.77;101121.53;5028263;28;20205;-82
2023/06/11 05:45:48;;;;;;;10.73;9.50;;;;;;;17.40;87.46;101123.66;5027442;28;20228;-81
2023/06/11 05:48:15;;;;;;;10.57;9.57;;;;;;;17.53;86.23;101118.97;5028594;28;20199;-81
2023/06/11 05:50:42;;;;;;;12.20;10.40;;;;;;;17.69;85.51;101124.78;5029709;28;20604;-80
2023/06/11 05:53:09;;;;;;;10.80;9.70;;;;;;;17.85;84.82;101135.94;5019940;28;20215;-80
2023/06/11 05:55:35;;;;;;;11.77;9.33;;;;;;;18.01;83.43;101130.06;5028610;28;20230;-82
2023/06/11 05:58:02;;;;;;;11.57;9.83;;;;;;;18.17;82.55;101135.84;5028449;28;20307;-82
2023/06/11 06:00:29;;;;;;;11.57;10.37;;;;;;;18.34;82.00;101134.34;5026707;28;20212;-80
2023/06/11 06:02:56;;;;;;;10.27;9.30;;;;;;;18.54;81.50;101135.28;5030067;28;20284;-80
2023/06/11 06:05:23;;;;;;;13.43;10.00;;;;;;;18.70;80.33;101133.81;5025114;28;20232;-81
2023/06/11 06:07:50;;;;;;;10.23;9.23;;;;;;;18.87;79.54;101134.97;5030683;28;20208;-81
2023/06/11 06:10:16;;;;;;;11.00;9.93;;;;;;;19.04;78.03;101141.53;5035970;28;20588;-81
2023/06/11 06:12:43;;;;;;;11.60;10.20;;;;;;;19.20;77.49;101141.84;5028260;28;20209;-82
2023/06/11 06:15:10;;;;;;;10.97;9.87;;;;;;;19.34;75.57;101144.16;5027522;28;20230;-84
2023/06/11 06:17:37;;;;;;;13.83;9.87;;;;;;;19.45;74.46;101139.59;5030071;28;20242;-82
2023/06/11 06:20:08;;;;;;;12.27;10.20;;;;;;;19.56;74.02;101143.03;5029724;28;20206;-81
2023/06/11 06:22:34;;;;;;;13.17;10.03;;;;;;;19.68;73.39;101144.59;5027507;28;20216;-80
2023/06/11 06:25:00;;;;;;;12.87;10.53;;;;;;;19.82;72.83;101143.28;5027649;28;20690;-80
2023/06/11 06:27:27;;;;;;;10.23;9.33;;;;;;;19.97;72.01;101146.41;5023706;28;20610;-81
2023/06/11 06:29:53;;;;;;;11.43;10.37;;;;;;;20.09;71.45;101137.09;5031183;28;20664;-81
2023/06/11 06:32:20;;;;;;;11.13;10.13;;;;;;;20.24;70.71;101140.22;5027059;28;20291;-81
2023/06/11 06:34:46;;;;;;;11.40;10.30;;;;;;;20.36;69.45;101134.50;5023029;28;20233;-80
2023/06/11 06:37:15;;;;;;;11.30;10.07;;;;;;;20.50;68.96;101143.97;5023143;28;20198;-80
2023/06/11 06:39:42;;;;;;;12.37;11.07;;;;;;;20.65;68.22;101142.47;5026878;28;20655;-80
2023/06/11 06:42:10;;;;;;;11.20;10.10;;;;;;;20.78;67.23;101136.72;5027565;28;20732;-80
2023/06/11 06:44:36;;;;;;;11.50;10.43;;;;;;;20.92;66.90;101151.59;5027501;28;20248;-80
2023/06/11 06:47:03;;;;;;;13.23;10.77;;;;;;;21.05;66.58;101141.25;5019738;28;20214;-82
2023/06/11 06:49:29;;;;;;;12.27;10.65;;;;;;;21.19;65.65;101146.13;5032143;28;20220;-81
2023/06/11 06:51:56;;;;;;;11.18;10.13;;;;;;;21.30;65.57;101147.81;5025328;28;20221;-80
2023/06/11 06:54:23;;;;;;;10.18;9.27;;;;;;;21.45;65.72;101147.13;5037139;28;20226;-80
2023/06/11 06:56:50;;;;;;;12.63;10.00;;;;;;;21.60;64.96;101141.13;5027829;28;20205;-80
2023/06/11 06:59:17;;;;;;;10.73;9.70;;;;;;;21.74;64.72;101144.13;5034526;28;20206;-81
2023/06/11 07:01:43;;;;;;;11.25;10.15;;;;;;;21.91;63.45;101141.53;5036369;28;20245;-83
2023/06/11 07:04:10;;;;;;;11.43;10.30;;;;;;;22.06;63.03;101143.53;5027892;28;20222;-81
2023/06/11 07:06:37;;;;;;;11.50;10.38;;;;;;;22.21;62.05;101142.97;5047046;28;20205;-80
2023/06/11 07:09:04;;;;;;;12.10;10.15;;;;;;;22.32;61.95;101145.41;5029845;28;20233;-80
2023/06/11 07:11:32;;;;;;;11.35;10.27;;;;;;;22.47;61.38;101149.22;5034060;28;20222;-81
2023/06/11 07:13:58;;;;;;;10.93;9.90;;;;;;;22.58;60.72;101143.47;5029501;28;20242;-81
2023/06/11 07:16:25;;;;;;;13.77;9.90;;;;;;;22.74;60.67;101145.44;5034710;28;20205;-81
2023/06/11 07:18:51;;;;;;;12.52;10.60;;;;;;;22.91;59.35;101146.38;5035419;28;20206;-81
2023/06/11 07:21:17;;;;;;;10.25;9.35;;;;;;;23.01;58.64;101152.50;5028212;28;20198;-81
2023/06/11 07:23:44;;;;;;;11.77;10.25;;;;;;;23.09;57.93;101150.69;5024962;28;20202;-81
2023/06/11 07:26:13;;;;;;;10.30;9.30;;;;;;;23.19;57.57;101151.38;5024245;28;20206;-81
2023/06/11 07:28:59;;;;;;;10.50;9.57;;;;;;;23.29;57.24;101153.09;5015687;28;20207;-81
2023/06/11 07:31:25;;;;;;;11.05;9.95;;;;;;;23.38;57.09;101154.78;5029982;28;20221;-82
2023/06/11 07:33:52;;;;;;;11.00;10.07;;;;;;;23.47;56.40;101151.91;5033011;28;20260;-81
2023/06/11 07:36:19;;;;;;;10.05;9.25;;;;;;;23.56;55.96;101155.53;5031376;28;20209;-80
2023/06/11 07:38:45;;;;;;;10.77;9.77;;;;;;;23.63;55.53;101145.69;5023792;28;20208;-81
2023/06/11 07:41:12;;;;;;;10.57;9.57;;;;;;;23.75;55.16;101152.47;5014724;28;20212;-80
2023/06/11 07:43:39;;;;;;;11.02;9.43;;;;;;;23.87;54.05;101156.53;5032345;28;20271;-82
2023/06/11 07:46:07;;;;;;;9.77;8.77;;;;;;;23.96;54.18;101151.09;5020748;28;20197;-81
2023/06/11 07:48:33;;;;;;;11.50;10.30;;;;;;;23.99;52.87;101154.34;5034373;28;20213;-80
2023/06/11 07:51:00;;;;;;;9.68;8.68;;;;;;;24.01;52.78;101151.41;5021586;28;20694;-81
2023/06/11 07:53:27;;;;;;;10.25;8.88;;;;;;;24.05;53.06;101153.63;5023542;28;20198;-81
2023/06/11 07:55:56;;;;;;;9.93;9.10;;;;;;;24.14;53.34;101147.16;5036655;28;20222;-81
2023/06/11 07:58:23;;;;;;;9.90;8.95;;;;;;;24.27;53.35;101153.97;5037904;28;20212;-81
2023/06/11 08:00:50;;;;;;;11.10;9.07;;;;;;;24.39;52.89;101149.84;5019660;28;20209;-80
2023/06/11 08:03:18;;;;;;;9.57;8.65;;;;;;;24.51;51.70;101146.59;5034140;28;20556;-82
2023/06/11 08:05:44;;;;;;;10.32;8.95;;;;;;;24.61;51.57;101143.63;5030779;28;20695;-81
2023/06/11 08:08:11;;;;;;;9.77;8.88;;;;;;;24.75;51.15;101144.75;5040315;28;20686;-80
2023/06/11 08:10:37;;;;;;;9.52;8.73;;;;;;;24.85;50.23;101134.50;5034778;28;20294;-80
2023/06/11 08:13:04;;;;;;;9.25;8.45;;;;;;;24.95;50.56;101137.88;5036246;28;20209;-81
2023/06/11 08:15:30;;;;;;;10.43;8.10;;;;;;;25.07;49.93;101138.34;5035167;28;20221;-80
2023/06/11 08:17:57;;;;;;;9.73;8.77;;;;;;;25.17;49.35;101138.97;5029615;28;20202;-80
2023/06/11 08:20:25;;;;;;;9.25;8.35;;;;;;;25.30;48.80;101141.06;5018182;28;20209;-80
2023/06/11 08:22:51;;;;;;;8.60;7.90;;;;;;;25.35;48.33;101136.78;5025548;28;20599;-80
2023/06/11 08:25:18;;;;;;;10.30;8.73;;;;;;;25.46;48.14;101141.81;5028931;28;20725;-80
2023/06/11 08:27:44;;;;;;;9.90;8.82;;;;;;;25.56;47.91;101131.50;5035901;28;20212;-80
2023/06/11 08:30:11;;;;;;;8.85;8.05;;;;;;;25.68;48.06;101144.75;5027906;28;20209;-80
2023/06/11 08:32:38;;;;;;;9.20;8.20;;;;;;;25.82;47.81;101135.75;5022780;28;20223;-80
2023/06/11 08:35:05;;;;;;;9.02;7.80;;;;;;;25.99;47.80;101139.16;5015623;28;20214;-80
2023/06/11 08:37:33;;;;;;;9.30;8.25;;;;;;;26.12;46.57;101145.69;5015622;28;20571;-81
2023/06/11 08:39:59;;;;;;;7.78;7.07;;;;;;;26.19;45.98;101130.25;5016104;28;20604;-81
2023/06/11 08:42:26;;;;;;;10.40;7.60;;;;;;;26.24;45.45;101141.47;5023373;28;20201;-80
2023/06/11 08:44:52;;;;;;;8.82;7.93;;;;;;;26.27;45.18;101132.91;5027720;28;20223;-80
2023/06/11 08:47:21;;;;;;;8.60;7.60;;;;;;;26.31;45.47;101133.41;5029125;28;20232;-81
2023/06/11 08:49:48;;;;;;;9.98;7.93;;;;;;;26.38;44.92;101136.22;5023673;28;20218;-80
2023/06/11 08:52:16;;;;;;;8.68;7.32;;;;;;;26.45;45.28;101139.91;5020362;28;20207;-81
2023/06/11 08:54:44;;;;;;;8.00;7.30;;;;;;;26.53;44.67;101139.78;5023981;28;20224;-81
2023/06/11 08:57:11;;;;;;;8.55;7.32;;;;;;;26.62;44.92;101133.22;5025962;28;20199;-82
2023/06/11 08:59:38;;;;;;;9.05;7.53;;;;;;;26.76;44.68;101135.06;5035751;28;20289;-80
2023/06/11 09:02:06;;;;;;;8.77;7.35;;;;;;;26.86;43.40;101137.50;5023490;28;20261;-80
2023/06/11 09:04:32;;;;;;;7.82;7.00;;;;;;;26.92;43.21;101137.56;5029036;28;20237;-80
2023/06/11 09:07:01;;;;;;;8.73;7.03;;;;;;;27.00;43.16;101133.06;5022987;28;20205;-81
2023/06/11 09:09:28;;;;;;;8.15;6.80;;;;;;;27.11;43.30;101129.81;5016785;28;20203;-80
2023/06/11 09:11:55;;;;;;;7.93;7.13;;;;;;;27.20;42.92;101135.00;5023896;28;20609;-81
2023/06/11 09:14:22;;;;;;;8.57;6.95;;;;;;;27.23;42.24;101131.84;5021046;28;20229;-81
2023/06/11 09:16:49;;;;;;;7.20;6.47;;;;;;;27.28;42.77;101134.00;5023638;28;20222;-80
2023/06/11 09:19:17;;;;;;;7.28;6.57;;;;;;;27.33;41.93;101128.81;5022345;28;20584;-81
2023/06/11 09:21:51;;;;;;;8.65;6.28;;;;;;;27.42;42.55;101132.25;5025276;28;20210;-82
2023/06/11 09:24:19;;;;;;;8.77;6.55;;;;;;;27.53;41.80;101134.47;5030954;28;20217;-80
2023/06/11 09:26:53;;;;;;;6.20;5.60;;;;;;;27.56;42.43;101124.00;5031549;28;20209;-82
2023/06/11 09:29:22;;;;;;;7.65;5.82;;;;;;;27.63;41.27;101122.19;5027931;28;20746;-81
2023/06/11 09:31:48;;;;;;;6.43;5.72;;;;;;;27.62;40.51;101119.63;5025210;28;20238;-80
2023/06/11 09:34:21;;;;;;;8.35;6.35;;;;;;;27.63;39.82;101119.44;5018362;28;20222;-81
2023/06/11 09:36:48;;;;;;;6.45;5.85;;;;;;;27.67;39.25;101117.16;5016401;28;20206;-80
2023/06/11 09:39:16;;;;;;;6.57;5.95;;;;;;;27.70;39.00;101119.50;5023124;28;20202;-80
2023/06/11 09:41:47;;;;;;;6.15;5.07;;;;;;;27.73;38.54;101115.53;5028032;28;20293;-81
2023/06/11 09:44:14;;;;;;;6.15;5.55;;;;;;;27.71;38.21;101118.47;5032226;28;20226;-81
2023/06/11 09:46:43;;;;;;;8.38;5.68;;;;;;;27.79;37.55;101114.72;5019060;28;20206;-82
2023/06/11 09:49:10;;;;;;;8.50;5.88;;;;;;;27.81;37.65;101113.50;5037844;28;20217;-81
2023/06/11 09:51:39;;;;;;;6.78;5.38;;;;;;;27.88;37.78;101124.50;5027283;28;20272;-80
2023/06/11 09:54:07;;;;;;;5.75;5.25;;;;;;;27.92;37.03;101115.69;5018909;28;20257;-81
2023/06/11 09:56:35;;;;;;;8.25;5.28;;;;;;;27.99;37.47;101124.78;5031433;28;20206;-81
2023/06/11 09:59:03;;;;;;;7.75;5.55;;;;;;;28.07;36.91;101120.22;5043141;28;20290;-81
2023/06/11 10:01:30;;;;;;;5.53;4.80;;;;;;;28.08;35.29;101116.44;5030579;28;20209;-81
2023/06/11 10:03:59;;;;;;;5.70;4.80;;;;;;;28.08;35.52;101117.28;5021959;28;20210;-80
2023/06/11 10:06:30;;;;;;;8.77;4.68;;;;;;;28.11;35.29;101114.16;5023303;28;20221;-81
2023/06/11 10:08:59;;;;;;;5.10;4.60;;;;;;;28.11;34.87;101105.94;5023858;28;20652;-82
2023/06/11 10:11:30;;;;;;;7.13;4.65;;;;;;;28.15;35.41;101120.91;5027448;28;20592;-81
2023/06/11 10:13:59;;;;;;;8.20;5.25;;;;;;;28.23;35.17;101112.56;5021555;28;20213;-81
2023/06/11 10:16:26;;;;;;;8.43;5.18;;;;;;;28.27;34.48;101116.59;5030640;28;20249;-81
2023/06/11 10:18:53;;;;;;;7.43;5.63;;;;;;;28.21;33.04;101117.41;5032290;28;20242;-81
2023/06/11 10:21:20;;;;;;;5.80;4.00;;;;;;;28.10;31.92;101120.66;5024119;28;20664;-82
2023/06/11 10:23:52;;;;;;;6.25;4.03;;;;;;;28.04;31.69;101107.78;5032506;28;20210;-81
2023/06/11 10:26:18;;;;;;;6.47;3.15;;;;;;;28.07;31.31;101110.13;5028944;28;20202;-81
2023/06/11 10:28:48;;;;;;;4.25;3.50;;;;;;;28.10;31.99;101112.47;5026422;28;20691;-80
2023/06/11 10:31:25;;;;;;;4.30;3.10;;;;;;;28.14;31.08;101110.97;5028430;28;20212;-81
2023/06/11 10:33:52;;;;;;;6.55;3.30;;;;;;;28.14;30.17;101112.88;5027108;28;20205;-80
2023/06/11 10:36:26;;;;;;;3.65;2.85;;;;;;;28.13;29.41;101114.75;5019908;28;20199;-80
2023/06/11 10:39:03;;;;;;;3.53;3.22;;;;;;;28.12;29.99;101115.84;5027752;28;20205;-80
2023/06/11 10:41:30;;;;;;;4.97;3.30;;;;;;;28.21;30.85;101124.75;5023149;28;20199;-80
2023/06/11 10:43:58;;;;;;;5.03;3.58;;;;;;;28.30;29.75;101118.09;5027466;28;20209;-81
2023/06/11 10:46:24;;;;;;;4.20;3.10;;;;;;;28.29;28.52;101113.66;5034928;28;20202;-80
2023/06/11 10:48:52;;;;;;;5.03;3.20;;;;;;;28.26;29.25;101125.88;5027321;28;20624;-80
2023/06/11 10:51:19;;;;;;;3.63;2.80;;;;;;;28.26;28.78;101117.66;5020366;28;20230;-80
2023/06/11 10:53:55;;;;;;;5.40;3.50;;;;;;;28.28;29.36;101118.28;5032842;28;20198;-80
2023/06/11 10:56:23;;;;;;;4.07;2.80;;;;;;;28.38;30.00;101119.81;5019343;28;20282;-82
2023/06/11 10:58:50;;;;;;;3.40;3.10;;;;;;;28.49;30.15;101124.69;5031595;28;20218;-82
2023/06/11 11:01:19;;;;;;;5.28;2.92;;;;;;;28.53;29.15;101115.88;5027526;28;20205;-81
2023/06/11 11:03:47;;;;;;;5.10;2.67;;;;;;;28.54;28.82;101122.22;5032733;28;20213;-80
2023/06/11 11:06:24;;;;;;;3.13;2.72;;;;;;;28.51;28.91;101117.13;5028016;28;20201;-80
2023/06/11 11:08:52;;;;;;;5.03;3.05;;;;;;;28.52;28.87;101118.81;5036764;28;20216;-81
2023/06/11 11:11:19;;;;;;;3.65;2.78;;;;;;;28.52;27.92;101113.34;5034275;28;20252;-81
2023/06/11 11:13:46;;;;;;;3.53;3.22;;;;;;;28.54;29.26;101112.09;5035283;28;20719;-81
2023/06/11 11:16:15;;;;;;;6.70;3.58;;;;;;;28.60;29.10;101118.66;5029010;28;20202;-81